createdAt,value
2018-10-07T00:01:57.984Z,3.47
2018-10-07T00:04:25.624Z,3.70
2018-10-07T00:06:53.383Z,3.42
2018-10-07T00:09:21.338Z,3.62
2018-10-07T00:11:49.265Z,3.20
2018-10-07T00:14:16.998Z,2.80
2018-10-07T00:16:44.729Z,2.80
2018-10-07T00:19:12.440Z,3.08
2018-10-07T00:21:40.092Z,2.87
2018-10-07T00:24:07.921Z,3.90
2018-10-07T00:26:35.818Z,3.08
2018-10-07T00:29:03.813Z,2.73
2018-10-07T00:31:35.329Z,3.15
2018-10-07T00:34:02.999Z,2.87
2018-10-07T00:36:31.528Z,2.77
2018-10-07T00:38:59.241Z,2.85
2018-10-07T00:41:27.138Z,2.90
2018-10-07T00:43:54.848Z,2.47
2018-10-07T00:46:22.553Z,3.12
2018-10-07T00:48:50.287Z,2.60
2018-10-07T00:51:18.256Z,3.10
2018-10-07T00:53:45.949Z,3.20
2018-10-07T00:56:13.640Z,2.85
2018-10-07T00:58:41.348Z,2.80
2018-10-07T01:01:09.250Z,3.25
2018-10-07T01:03:37.004Z,3.20
2018-10-07T01:06:04.781Z,3.05
2018-10-07T01:08:32.461Z,2.80
2018-10-07T01:11:00.172Z,3.02
2018-10-07T01:13:27.885Z,2.87
2018-10-07T01:15:55.584Z,2.75
2018-10-07T01:18:23.202Z,2.72
2018-10-07T01:20:50.944Z,2.58
2018-10-07T01:23:18.641Z,2.50
2018-10-07T01:25:46.357Z,2.62
2018-10-07T01:28:14.117Z,3.02
2018-10-07T01:30:41.867Z,3.35
2018-10-07T01:33:09.573Z,2.77
2018-10-07T01:35:37.292Z,2.85
2018-10-07T01:38:05.476Z,2.90
2018-10-07T01:40:33.129Z,2.90
2018-10-07T01:43:00.823Z,3.22
2018-10-07T01:45:28.457Z,2.75
2018-10-07T01:47:56.141Z,2.95
2018-10-07T01:50:23.841Z,2.60
2018-10-07T01:52:51.501Z,2.70
2018-10-07T01:55:19.223Z,3.50
2018-10-07T01:57:46.867Z,3.00
2018-10-07T02:00:14.805Z,3.37
2018-10-07T02:02:42.476Z,3.63
2018-10-07T02:05:10.244Z,3.00
2018-10-07T02:07:37.909Z,3.05
2018-10-07T02:10:05.612Z,2.98
2018-10-07T02:12:33.324Z,3.47
2018-10-07T02:15:01.002Z,3.30
2018-10-07T02:17:28.955Z,3.40
2018-10-07T02:19:56.858Z,3.22
2018-10-07T02:22:24.547Z,3.12
2018-10-07T02:24:52.291Z,3.00
2018-10-07T02:27:20.172Z,3.10
2018-10-07T02:29:47.880Z,3.50
2018-10-07T02:32:15.876Z,2.80
2018-10-07T02:34:43.701Z,2.85
2018-10-07T02:37:11.432Z,2.70
2018-10-07T02:39:39.136Z,4.28
2018-10-07T02:42:06.908Z,3.27
2018-10-07T02:44:34.588Z,3.50
2018-10-07T02:47:02.373Z,3.40
2018-10-07T02:49:30.073Z,3.25
2018-10-07T02:51:57.829Z,3.35
2018-10-07T02:54:26.059Z,3.20
2018-10-07T02:56:53.827Z,3.10
2018-10-07T02:59:21.769Z,2.70
2018-10-07T03:01:49.510Z,2.62
2018-10-07T03:04:17.277Z,3.42
2018-10-07T03:06:44.997Z,3.73
2018-10-07T03:09:12.728Z,3.70
2018-10-07T03:11:40.391Z,3.40
2018-10-07T03:14:08.471Z,3.55
2018-10-07T03:16:36.133Z,3.60
2018-10-07T03:19:03.899Z,3.52
2018-10-07T03:21:32.061Z,5.10
2018-10-07T03:23:59.788Z,5.40
2018-10-07T03:26:27.529Z,4.00
2018-10-07T03:28:55.661Z,4.60
2018-10-07T03:31:23.343Z,4.80
2018-10-07T03:33:50.996Z,4.93
2018-10-07T03:36:18.984Z,4.47
2018-10-07T03:38:46.748Z,4.00
2018-10-07T03:41:14.673Z,3.67
2018-10-07T03:43:42.397Z,3.50
2018-10-07T03:46:10.221Z,3.53
2018-10-07T03:48:37.931Z,4.03
2018-10-07T03:51:05.584Z,4.17
2018-10-07T03:53:33.254Z,3.90
2018-10-07T03:56:01.016Z,3.43
2018-10-07T03:58:28.742Z,4.53
2018-10-07T04:00:56.516Z,4.57
2018-10-07T04:03:24.217Z,3.80
2018-10-07T04:05:51.941Z,4.20
2018-10-07T04:08:19.605Z,3.80
2018-10-07T04:10:47.312Z,3.43
2018-10-07T04:13:14.980Z,3.50
2018-10-07T04:15:42.649Z,3.23
2018-10-07T04:18:10.470Z,3.10
2018-10-07T04:20:38.410Z,3.10
2018-10-07T04:23:06.220Z,3.27
2018-10-07T04:25:33.924Z,3.47
2018-10-07T04:28:01.573Z,3.77
2018-10-07T04:30:29.244Z,3.20
2018-10-07T04:32:56.888Z,3.30
2018-10-07T04:35:24.509Z,3.00
2018-10-07T04:37:52.224Z,3.10
2018-10-07T04:40:19.849Z,2.80
2018-10-07T04:42:47.532Z,2.60
2018-10-07T04:45:15.172Z,2.90
2018-10-07T04:47:42.896Z,3.80
2018-10-07T04:50:10.574Z,3.10
2018-10-07T04:52:38.368Z,3.30
2018-10-07T04:55:06.060Z,3.67
2018-10-07T04:57:33.733Z,4.07
2018-10-07T05:00:01.361Z,3.83
2018-10-07T05:02:29.001Z,3.27
2018-10-07T05:04:56.759Z,3.80
2018-10-07T05:07:24.506Z,3.90
2018-10-07T05:10:02.433Z,4.20
2018-10-07T05:12:30.489Z,5.10
2018-10-07T05:14:58.475Z,6.07
2018-10-07T05:17:26.296Z,4.47
2018-10-07T05:19:54.049Z,4.43
2018-10-07T05:22:21.739Z,4.00
2018-10-07T05:24:49.436Z,3.60
2018-10-07T05:27:17.150Z,3.80
2018-10-07T05:29:44.844Z,3.40
2018-10-07T05:32:12.503Z,3.33
2018-10-07T05:34:40.208Z,3.70
2018-10-07T05:37:07.929Z,4.03
2018-10-07T05:39:35.641Z,3.80
2018-10-07T05:42:03.345Z,4.30
2018-10-07T05:44:31.617Z,4.27
2018-10-07T05:46:59.233Z,4.17
2018-10-07T05:49:26.896Z,4.10
2018-10-07T05:51:54.573Z,5.10
2018-10-07T05:54:22.230Z,4.67
2018-10-07T05:56:49.960Z,4.80
2018-10-07T05:59:17.744Z,4.60
2018-10-07T06:01:45.661Z,4.80
2018-10-07T06:04:49.318Z,4.20
2018-10-07T06:07:17.181Z,3.63
2018-10-07T06:09:44.934Z,4.53
2018-10-07T06:12:12.665Z,4.47
2018-10-07T06:14:51.813Z,4.97
2018-10-07T06:17:19.497Z,4.40
2018-10-07T06:19:47.268Z,4.30
2018-10-07T06:22:15.009Z,4.47
2018-10-07T06:24:42.669Z,3.90
2018-10-07T06:27:10.369Z,3.60
2018-10-07T06:29:38.148Z,3.30
2018-10-07T06:32:05.831Z,3.10
2018-10-07T06:34:33.620Z,3.43
2018-10-07T06:37:01.333Z,3.23
2018-10-07T06:39:29.113Z,3.93
2018-10-07T06:41:56.902Z,4.70
2018-10-07T06:44:24.764Z,4.40
2018-10-07T06:46:52.517Z,3.63
2018-10-07T06:49:20.411Z,3.70
2018-10-07T06:51:48.214Z,3.70
2018-10-07T06:54:15.925Z,3.80
2018-10-07T06:56:43.647Z,3.40
2018-10-07T06:59:11.720Z,3.40
2018-10-07T07:01:39.529Z,3.30
2018-10-07T07:04:07.274Z,3.00
2018-10-07T07:06:35.011Z,3.07
2018-10-07T07:09:04.712Z,2.40
2018-10-07T07:11:32.646Z,2.70
2018-10-07T07:14:00.306Z,2.60
2018-10-07T07:16:28.073Z,2.35
2018-10-07T07:18:55.742Z,2.60
2018-10-07T07:21:23.496Z,2.50
2018-10-07T07:23:51.211Z,2.58
2018-10-07T07:26:18.870Z,2.80
2018-10-07T07:28:46.608Z,3.42
2018-10-07T07:31:14.354Z,3.02
2018-10-07T07:33:42.025Z,3.00
2018-10-07T07:36:09.668Z,2.80
2018-10-07T07:38:37.341Z,3.12
2018-10-07T07:41:05.049Z,2.90
2018-10-07T07:43:32.714Z,3.00
2018-10-07T07:46:00.409Z,3.50
2018-10-07T07:48:28.340Z,4.12
2018-10-07T07:50:56.081Z,4.40
2018-10-07T07:53:23.787Z,3.90
2018-10-07T07:55:51.464Z,3.58
2018-10-07T07:58:19.243Z,3.37
2018-10-07T08:00:47.019Z,2.83
2018-10-07T08:03:14.895Z,2.60
2018-10-07T08:05:42.655Z,2.50
2018-10-07T08:08:10.900Z,2.72
2018-10-07T08:10:38.635Z,3.52
2018-10-07T08:13:06.804Z,5.03
2018-10-07T08:15:34.640Z,3.80
2018-10-07T08:18:02.352Z,4.30
2018-10-07T08:20:30.337Z,5.00
2018-10-07T08:22:58.035Z,3.70
2018-10-07T08:25:26.481Z,3.98
2018-10-07T08:27:54.246Z,3.00
2018-10-07T08:30:21.929Z,2.70
2018-10-07T08:32:49.789Z,2.42
2018-10-07T08:35:17.640Z,2.70
2018-10-07T08:37:45.270Z,3.70
2018-10-07T08:40:13.180Z,4.95
2018-10-07T08:42:42.496Z,6.17
2018-10-07T08:45:10.596Z,6.28
2018-10-07T08:47:38.695Z,5.65
2018-10-07T08:50:23.319Z,4.83
2018-10-07T08:52:51.511Z,4.77
2018-10-07T08:55:19.318Z,4.53
2018-10-07T08:57:47.919Z,4.55
2018-10-07T09:00:15.585Z,5.10
2018-10-07T09:02:43.308Z,4.67
2018-10-07T09:05:11.010Z,4.15
2018-10-07T09:07:38.776Z,4.33
2018-10-07T09:10:06.443Z,4.67
2018-10-07T09:12:34.065Z,4.83
2018-10-07T09:15:01.726Z,4.25
2018-10-07T09:17:29.423Z,4.17
2018-10-07T09:19:57.874Z,4.12
2018-10-07T09:22:25.568Z,3.72
2018-10-07T09:24:53.212Z,3.70
2018-10-07T09:27:21.063Z,3.00
2018-10-07T09:29:51.465Z,3.77
2018-10-07T09:32:19.300Z,3.83
2018-10-07T09:34:47.226Z,4.28
2018-10-07T09:37:14.839Z,4.47
2018-10-07T09:39:42.636Z,4.33
2018-10-07T09:42:10.452Z,3.62
2018-10-07T09:44:38.175Z,4.40
2018-10-07T09:47:05.956Z,4.03
2018-10-07T09:49:34.521Z,5.20
2018-10-07T09:52:04.643Z,4.90
2018-10-07T09:54:32.362Z,4.10
2018-10-07T09:57:01.069Z,4.55
2018-10-07T09:59:28.762Z,4.40
2018-10-07T10:01:57.724Z,4.45
2018-10-07T10:04:30.134Z,4.45
2018-10-07T10:06:57.930Z,4.85
2018-10-07T10:09:27.407Z,4.10
2018-10-07T10:11:55.769Z,4.58
2018-10-07T10:14:23.650Z,3.98
2018-10-07T10:17:02.018Z,3.47
2018-10-07T10:19:40.363Z,3.83
2018-10-07T10:22:11.576Z,4.33
2018-10-07T10:24:48.480Z,4.70
2018-10-07T10:29:31.661Z,4.47
2018-10-07T10:32:35.358Z,5.00
2018-10-07T10:35:16.329Z,4.70
2018-10-07T10:39:23.768Z,4.85
2018-10-07T10:41:58.199Z,4.22
2018-10-07T10:44:33.311Z,4.03
2018-10-07T10:47:09.321Z,4.55
2018-10-07T10:49:44.159Z,4.58
2018-10-07T10:52:18.831Z,4.33
2018-10-07T10:54:50.817Z,4.35
2018-10-07T10:57:30.945Z,3.67
2018-10-07T11:00:04.676Z,4.58
2018-10-07T11:03:40.345Z,3.80
2018-10-07T11:06:15.765Z,3.80
2018-10-07T11:08:47.776Z,3.50
2018-10-07T11:11:24.619Z,3.50
2018-10-07T11:14:02.990Z,3.10
2018-10-07T11:16:43.177Z,3.20
2018-10-07T11:19:19.854Z,3.02
2018-10-07T11:22:57.959Z,2.83
2018-10-07T11:25:36.936Z,3.10
2018-10-07T11:28:12.509Z,3.40
2018-10-07T11:33:02.362Z,3.35
2018-10-07T11:35:41.246Z,4.15
2018-10-07T11:38:14.252Z,4.22
2018-10-07T11:41:52.242Z,3.70
2018-10-07T11:44:32.716Z,2.85
2018-10-07T11:47:12.760Z,3.02
2018-10-07T11:49:46.301Z,2.40
2018-10-07T11:52:58.714Z,2.55
2018-10-07T11:55:26.365Z,3.10
2018-10-07T11:57:54.009Z,3.02
2018-10-07T12:00:21.709Z,2.60
2018-10-07T12:02:49.479Z,2.60
2018-10-07T12:05:17.117Z,2.75
2018-10-07T12:07:44.913Z,2.67
2018-10-07T12:10:12.643Z,2.65
2018-10-07T12:12:40.235Z,2.92
2018-10-07T12:15:07.925Z,3.47
2018-10-07T12:17:35.593Z,3.40
2018-10-07T12:20:03.404Z,3.40
2018-10-07T12:22:31.053Z,3.17
2018-10-07T12:24:58.709Z,2.72
2018-10-07T12:27:26.377Z,3.12
2018-10-07T12:29:54.021Z,2.60
2018-10-07T12:32:21.808Z,2.65
2018-10-07T12:34:49.511Z,3.42
2018-10-07T12:37:17.360Z,3.70
2018-10-07T12:39:45.068Z,3.55
2018-10-07T12:42:12.788Z,3.67
2018-10-07T12:44:40.687Z,3.83
2018-10-07T12:47:08.417Z,3.70
2018-10-07T12:49:36.068Z,3.92
2018-10-07T12:52:04.016Z,4.25
2018-10-07T12:54:31.723Z,4.22
2018-10-07T12:56:59.313Z,4.30
2018-10-07T12:59:26.972Z,4.67
2018-10-07T13:01:54.677Z,4.30
2018-10-07T13:04:22.305Z,3.95
2018-10-07T13:06:50.014Z,4.30
2018-10-07T13:09:17.752Z,4.30
2018-10-07T13:11:45.424Z,4.12
2018-10-07T13:14:13.090Z,4.42
2018-10-07T13:16:41.070Z,4.85
2018-10-07T13:19:08.881Z,5.12
2018-10-07T13:21:36.523Z,4.83
2018-10-07T13:24:04.173Z,4.42
2018-10-07T13:26:38.554Z,4.95
2018-10-07T13:29:06.244Z,4.33
2018-10-07T13:31:33.941Z,4.30
2018-10-07T13:34:08.174Z,4.45
2018-10-07T13:36:35.854Z,4.53
2018-10-07T13:39:05.988Z,4.67
2018-10-07T13:41:33.720Z,4.80
2018-10-07T13:44:01.402Z,4.20
2018-10-07T13:46:29.068Z,4.55
2018-10-07T13:48:56.734Z,4.35
2018-10-07T13:51:24.419Z,4.90
2018-10-07T13:53:52.107Z,4.33
2018-10-07T13:56:19.768Z,4.00
2018-10-07T13:58:47.428Z,3.85
2018-10-07T14:01:15.085Z,4.50
2018-10-07T14:03:42.767Z,4.67
2018-10-07T14:06:10.691Z,3.77
2018-10-07T14:08:38.405Z,4.20
2018-10-07T14:11:06.160Z,4.28
2018-10-07T14:13:33.806Z,3.90
2018-10-07T14:16:01.482Z,4.40
2018-10-07T14:18:29.126Z,4.30
2018-10-07T14:20:56.794Z,4.40
2018-10-07T14:23:24.405Z,4.62
2018-10-07T14:25:52.048Z,4.15
2018-10-07T14:28:19.776Z,3.72
2018-10-07T14:30:47.411Z,3.98
2018-10-07T14:33:15.050Z,4.87
2018-10-07T14:35:42.736Z,4.50
2018-10-07T14:38:10.385Z,4.30
2018-10-07T14:40:38.065Z,4.28
2018-10-07T14:43:05.841Z,4.10
2018-10-07T14:45:33.472Z,4.85
2018-10-07T14:48:01.140Z,4.30
2018-10-07T14:50:28.773Z,5.08
2018-10-07T14:52:56.452Z,4.60
2018-10-07T14:55:24.076Z,4.00
2018-10-07T14:57:51.697Z,4.60
2018-10-07T15:00:19.430Z,3.90
2018-10-07T15:02:47.357Z,3.83
2018-10-07T15:05:15.124Z,3.62
2018-10-07T15:07:42.801Z,3.67
2018-10-07T15:10:10.485Z,4.30
2018-10-07T15:12:38.121Z,4.28
2018-10-07T15:15:06.856Z,5.55
2018-10-07T15:17:34.636Z,5.80
2018-10-07T15:20:08.920Z,6.92
2018-10-07T15:22:36.550Z,6.37
2018-10-07T15:25:04.229Z,6.45
2018-10-07T15:27:32.020Z,6.20
2018-10-07T15:29:59.961Z,5.70
2018-10-07T15:32:27.600Z,5.10
2018-10-07T15:34:55.233Z,5.85
2018-10-07T15:37:23.198Z,6.55
2018-10-07T15:39:50.943Z,6.00
2018-10-07T15:42:18.677Z,6.33
2018-10-07T15:44:46.229Z,6.70
2018-10-07T15:47:14.482Z,6.25
2018-10-07T15:49:42.137Z,6.42
2018-10-07T15:52:09.762Z,6.28
2018-10-07T15:54:37.385Z,6.17
2018-10-07T15:57:05.151Z,6.55
2018-10-07T15:59:32.785Z,6.22
2018-10-07T16:02:00.440Z,5.97
2018-10-07T16:04:28.081Z,6.85
2018-10-07T16:06:55.759Z,6.50
2018-10-07T16:09:23.401Z,6.53
2018-10-07T16:11:51.080Z,6.92
2018-10-07T16:14:18.753Z,7.87
2018-10-07T16:16:46.577Z,8.38
2018-10-07T16:19:14.189Z,7.60
2018-10-07T16:21:41.917Z,7.03
2018-10-07T16:24:09.579Z,7.10
2018-10-07T16:26:37.306Z,6.95
2018-10-07T16:29:04.945Z,6.10
2018-10-07T16:31:32.599Z,7.00
2018-10-07T16:34:00.237Z,6.70
2018-10-07T16:36:27.911Z,6.50
2018-10-07T16:38:55.577Z,6.22
2018-10-07T16:41:23.208Z,6.20
2018-10-07T16:43:50.886Z,5.83
2018-10-07T16:46:18.549Z,7.15
2018-10-07T16:48:46.321Z,7.00
2018-10-07T16:51:14.196Z,6.77
2018-10-07T16:53:42.124Z,6.62
2018-10-07T16:56:09.945Z,7.00
2018-10-07T16:58:38.651Z,6.72
2018-10-07T17:01:07.977Z,7.10
2018-10-07T17:03:36.327Z,7.40
2018-10-07T17:06:03.976Z,7.42
2018-10-07T17:08:31.674Z,6.33
2018-10-07T17:10:59.442Z,7.50
2018-10-07T17:13:27.164Z,8.23
2018-10-07T17:15:54.989Z,8.53
2018-10-07T17:18:22.645Z,7.42
2018-10-07T17:20:50.396Z,6.78
2018-10-07T17:23:18.069Z,6.03
2018-10-07T17:25:45.745Z,5.92
2018-10-07T17:28:13.452Z,6.10
2018-10-07T17:30:41.129Z,5.28
2018-10-07T17:33:08.794Z,5.58
2018-10-07T17:35:36.449Z,5.30
2018-10-07T17:38:04.172Z,4.87
2018-10-07T17:40:31.829Z,4.92
2018-10-07T17:42:59.516Z,5.78
2018-10-07T17:45:27.174Z,5.50
2018-10-07T17:47:54.880Z,6.05
2018-10-07T17:50:22.513Z,5.78
2018-10-07T17:52:50.631Z,5.95
2018-10-07T17:55:18.323Z,6.45
2018-10-07T17:57:46.020Z,6.90
2018-10-07T18:00:14.225Z,6.72
2018-10-07T18:02:41.948Z,6.50
2018-10-07T18:05:09.640Z,6.50
2018-10-07T18:07:37.345Z,9.65
2018-10-07T18:10:04.946Z,9.28
2018-10-07T18:12:32.718Z,9.68
2018-10-07T18:15:00.324Z,7.75
2018-10-07T18:17:28.131Z,8.48
2018-10-07T18:19:55.732Z,10.70
2018-10-07T18:22:23.389Z,10.93
2018-10-07T18:24:50.991Z,14.25
2018-10-07T18:27:18.613Z,14.63
2018-10-07T18:29:46.288Z,13.00
2018-10-07T18:32:13.946Z,13.35
2018-10-07T18:34:41.578Z,14.00
2018-10-07T18:37:09.249Z,14.18
2018-10-07T18:39:36.907Z,13.58
2018-10-07T18:42:04.636Z,13.28
2018-10-07T18:44:32.344Z,13.10
2018-10-07T18:46:59.957Z,12.47
2018-10-07T18:49:27.666Z,11.03
2018-10-07T18:51:55.401Z,15.93
2018-10-07T18:54:23.023Z,15.23
2018-10-07T18:56:50.705Z,15.18
2018-10-07T18:59:18.415Z,14.15
2018-10-07T19:01:46.060Z,15.20
2018-10-07T19:04:13.876Z,14.38
2018-10-07T19:06:41.475Z,15.08
2018-10-07T19:09:10.217Z,13.10
2018-10-07T19:11:37.870Z,12.47
2018-10-07T19:14:05.601Z,15.93
2018-10-07T19:16:33.285Z,14.80
2018-10-07T19:19:01.025Z,14.10
2018-10-07T19:21:28.804Z,14.10
2018-10-07T19:23:57.223Z,14.68
2018-10-07T19:26:24.876Z,15.00
2018-10-07T19:28:52.480Z,13.70
2018-10-07T19:31:20.157Z,13.83
2018-10-07T19:33:47.752Z,12.13
2018-10-07T19:36:15.649Z,11.85
2018-10-07T19:38:43.566Z,14.38
2018-10-07T19:41:11.224Z,15.30
2018-10-07T19:43:38.930Z,14.07
2018-10-07T19:46:06.709Z,15.80
2018-10-07T19:48:34.653Z,15.95
2018-10-07T19:51:02.624Z,12.82
2018-10-07T19:53:30.244Z,15.48
2018-10-07T19:55:58.032Z,15.98
2018-10-07T19:58:25.918Z,16.15
2018-10-07T20:00:53.965Z,14.20
2018-10-07T20:03:21.624Z,15.70
2018-10-07T20:05:49.281Z,16.07
2018-10-07T20:08:16.967Z,16.20
2018-10-07T20:10:44.579Z,17.20
2018-10-07T20:13:12.584Z,18.37
2018-10-07T20:15:40.272Z,18.15
2018-10-07T20:18:08.068Z,18.35
2018-10-07T20:20:35.735Z,18.92
2018-10-07T20:23:03.441Z,19.48
2018-10-07T20:25:31.469Z,18.85
2018-10-07T20:27:59.104Z,18.57
2018-10-07T20:30:26.766Z,18.57
2018-10-07T20:32:54.428Z,17.00
2018-10-07T20:35:22.373Z,17.67
2018-10-07T20:37:50.018Z,17.02
2018-10-07T20:40:17.710Z,17.40
2018-10-07T20:42:45.329Z,19.67
2018-10-07T20:45:13.021Z,17.50
2018-10-07T20:47:41.077Z,17.27
2018-10-07T20:50:08.724Z,19.70
2018-10-07T20:52:36.571Z,15.43
2018-10-07T20:55:04.508Z,16.85
2018-10-07T20:57:32.225Z,14.13
2018-10-07T20:59:59.978Z,13.48
2018-10-07T21:02:27.712Z,13.88
2018-10-07T21:04:55.356Z,11.90
2018-10-07T21:07:23.168Z,12.93
2018-10-07T21:09:50.841Z,12.20
2018-10-07T21:12:25.284Z,12.00
2018-10-07T21:14:52.916Z,11.63
2018-10-07T21:17:20.825Z,11.85
2018-10-07T21:19:48.644Z,12.07
2018-10-07T21:22:16.297Z,12.43
2018-10-07T21:24:43.957Z,12.45
2018-10-07T21:27:11.693Z,11.03
2018-10-07T21:29:39.365Z,9.88
2018-10-07T21:32:06.988Z,12.37
2018-10-07T21:34:41.373Z,11.65
2018-10-07T21:37:09.251Z,11.88
2018-10-07T21:39:37.181Z,11.48
2018-10-07T21:42:04.833Z,10.93
2018-10-07T21:44:32.560Z,11.33
2018-10-07T21:47:00.301Z,11.38
2018-10-07T21:49:27.877Z,12.35
2018-10-07T21:51:55.521Z,12.73
2018-10-07T21:54:23.180Z,14.23
2018-10-07T21:56:50.889Z,13.28
2018-10-07T21:59:18.528Z,13.43
2018-10-07T22:01:46.179Z,12.60
2018-10-07T22:04:13.873Z,13.45
2018-10-07T22:06:41.817Z,18.17
2018-10-07T22:09:09.443Z,17.37
2018-10-07T22:11:37.129Z,20.75
2018-10-07T22:14:11.897Z,16.97
2018-10-07T22:16:39.546Z,15.50
2018-10-07T22:19:07.160Z,14.50
2018-10-07T22:21:34.833Z,13.38
2018-10-07T22:24:02.465Z,14.70
2018-10-07T22:26:30.190Z,16.48
2018-10-07T22:28:57.819Z,18.50
2018-10-07T22:31:25.450Z,17.17
2018-10-07T22:33:53.105Z,17.07
2018-10-07T22:36:21.204Z,15.10
2018-10-07T22:38:48.847Z,14.05
2018-10-07T22:41:16.558Z,14.28
2018-10-07T22:43:44.171Z,15.23
2018-10-07T22:46:11.848Z,16.25
2018-10-07T22:48:39.454Z,13.62
2018-10-07T22:51:07.104Z,15.25
2018-10-07T22:53:34.728Z,14.30
2018-10-07T22:56:02.436Z,12.58
2018-10-07T22:58:30.041Z,10.70
2018-10-07T23:00:57.704Z,11.12
2018-10-07T23:03:25.380Z,10.58
2018-10-07T23:05:53.018Z,11.63
2018-10-07T23:08:21.161Z,11.70
2018-10-07T23:10:48.795Z,11.88
2018-10-07T23:13:16.420Z,10.05
2018-10-07T23:15:44.080Z,11.78
2018-10-07T23:18:11.864Z,10.80
2018-10-07T23:20:39.525Z,10.78
2018-10-07T23:23:07.197Z,10.15
2018-10-07T23:25:34.841Z,10.63
2018-10-07T23:28:02.610Z,11.83
2018-10-07T23:30:30.348Z,12.17
2018-10-07T23:32:58.030Z,9.70
2018-10-07T23:35:25.659Z,9.53
2018-10-07T23:37:53.585Z,10.35
2018-10-07T23:40:21.576Z,10.90
2018-10-07T23:42:49.266Z,9.73
2018-10-07T23:45:16.925Z,10.30
2018-10-07T23:47:44.604Z,9.90
2018-10-07T23:50:12.337Z,9.87
2018-10-07T23:52:39.986Z,10.47
2018-10-07T23:55:07.669Z,9.67
2018-10-07T23:57:35.302Z,8.87
